sensor_id;sensor_type;location;lat;lon;timestamp;pressure;altitude;pressure_sealevel;temperature;humidity
61478;BME280;47345;52.334;10.392;2022-07-18T00:00:16;101864.61;;;14.43;61.75
61478;BME280;47345;52.334;10.392;2022-07-18T00:02:46;101869.42;;;14.38;61.20
61478;BME280;47345;52.334;10.392;2022-07-18T00:05:17;101870.91;;;14.31;61.17
61478;BME280;47345;52.334;10.392;2022-07-18T00:07:48;101868.73;;;14.25;60.83
61478;BME280;47345;52.334;10.392;2022-07-18T00:10:18;101866.58;;;14.16;61.01
61478;BME280;47345;52.334;10.392;2022-07-18T00:12:49;101867.27;;;14.10;61.15
61478;BME280;47345;52.334;10.392;2022-07-18T00:15:20;101866.22;;;14.05;61.11
61478;BME280;47345;52.334;10.392;2022-07-18T00:17:50;101866.45;;;14.01;62.04
61478;BME280;47345;52.334;10.392;2022-07-18T00:20:21;101865.11;;;13.97;62.89
61478;BME280;47345;52.334;10.392;2022-07-18T00:22:52;101864.07;;;13.93;63.42
61478;BME280;47345;52.334;10.392;2022-07-18T00:25:23;101868.41;;;13.91;63.84
61478;BME280;47345;52.334;10.392;2022-07-18T00:27:54;101872.20;;;13.87;64.26
61478;BME280;47345;52.334;10.392;2022-07-18T00:30:24;101876.41;;;13.83;64.41
61478;BME280;47345;52.334;10.392;2022-07-18T00:32:55;101882.09;;;13.79;64.70
61478;BME280;47345;52.334;10.392;2022-07-18T00:35:25;101881.39;;;13.75;64.18
61478;BME280;47345;52.334;10.392;2022-07-18T00:37:56;101880.67;;;13.69;64.05
61478;BME280;47345;52.334;10.392;2022-07-18T00:40:26;101876.75;;;13.65;64.19
61478;BME280;47345;52.334;10.392;2022-07-18T00:42:57;101866.83;;;13.63;64.68
61478;BME280;47345;52.334;10.392;2022-07-18T00:45:27;101858.37;;;13.61;64.91
61478;BME280;47345;52.334;10.392;2022-07-18T00:47:58;101854.05;;;13.61;65.55
61478;BME280;47345;52.334;10.392;2022-07-18T00:50:29;101853.83;;;13.60;65.84
61478;BME280;47345;52.334;10.392;2022-07-18T00:52:59;101860.63;;;13.58;65.82
61478;BME280;47345;52.334;10.392;2022-07-18T00:55:30;101865.23;;;13.56;65.73
61478;BME280;47345;52.334;10.392;2022-07-18T00:58:01;101863.40;;;13.55;65.88
61478;BME280;47345;52.334;10.392;2022-07-18T01:00:31;101866.73;;;13.53;65.42
61478;BME280;47345;52.334;10.392;2022-07-18T01:03:22;101867.11;;;13.49;64.96
61478;BME280;47345;52.334;10.392;2022-07-18T01:05:53;101875.84;;;13.42;65.10
61478;BME280;47345;52.334;10.392;2022-07-18T01:08:24;101878.43;;;13.36;65.62
61478;BME280;47345;52.334;10.392;2022-07-18T01:10:54;101875.17;;;13.31;66.00
61478;BME280;47345;52.334;10.392;2022-07-18T01:13:24;101868.73;;;13.28;66.41
61478;BME280;47345;52.334;10.392;2022-07-18T01:15:55;101869.98;;;13.27;66.36
61478;BME280;47345;52.334;10.392;2022-07-18T01:18:25;101866.67;;;13.26;66.68
61478;BME280;47345;52.334;10.392;2022-07-18T01:20:56;101862.02;;;13.25;66.95
61478;BME280;47345;52.334;10.392;2022-07-18T01:23:27;101855.94;;;13.25;67.30
61478;BME280;47345;52.334;10.392;2022-07-18T01:25:57;101857.88;;;13.26;67.42
61478;BME280;47345;52.334;10.392;2022-07-18T01:28:27;101860.41;;;13.25;67.41
61478;BME280;47345;52.334;10.392;2022-07-18T01:30:58;101860.16;;;13.24;67.66
61478;BME280;47345;52.334;10.392;2022-07-18T01:33:28;101855.85;;;13.23;67.93
61478;BME280;47345;52.334;10.392;2022-07-18T01:36:01;101854.04;;;13.23;67.68
61478;BME280;47345;52.334;10.392;2022-07-18T01:38:33;101852.80;;;13.21;67.28
61478;BME280;47345;52.334;10.392;2022-07-18T01:41:04;101851.55;;;13.20;67.29
61478;BME280;47345;52.334;10.392;2022-07-18T01:43:38;101847.29;;;13.17;67.55
61478;BME280;47345;52.334;10.392;2022-07-18T01:46:11;101851.30;;;13.13;66.51
61478;BME280;47345;52.334;10.392;2022-07-18T01:48:42;101852.96;;;13.08;66.32
61478;BME280;47345;52.334;10.392;2022-07-18T01:51:12;101854.52;;;13.01;66.67
61478;BME280;47345;52.334;10.392;2022-07-18T01:53:47;101852.11;;;12.95;67.03
61478;BME280;47345;52.334;10.392;2022-07-18T01:56:23;101850.91;;;12.90;66.72
61478;BME280;47345;52.334;10.392;2022-07-18T01:58:53;101851.69;;;12.86;66.73
61478;BME280;47345;52.334;10.392;2022-07-18T02:01:23;101851.84;;;12.81;67.46
61478;BME280;47345;52.334;10.392;2022-07-18T02:03:54;101851.86;;;12.78;68.05
61478;BME280;47345;52.334;10.392;2022-07-18T02:06:25;101849.70;;;12.75;68.18
61478;BME280;47345;52.334;10.392;2022-07-18T02:08:55;101851.83;;;12.71;68.39
61478;BME280;47345;52.334;10.392;2022-07-18T02:11:26;101848.69;;;12.69;68.42
61478;BME280;47345;52.334;10.392;2022-07-18T02:13:56;101849.20;;;12.66;68.68
61478;BME280;47345;52.334;10.392;2022-07-18T02:16:27;101846.76;;;12.63;68.96
61478;BME280;47345;52.334;10.392;2022-07-18T02:18:58;101842.18;;;12.62;69.10
61478;BME280;47345;52.334;10.392;2022-07-18T02:21:28;101840.71;;;12.62;69.14
61478;BME280;47345;52.334;10.392;2022-07-18T02:23:59;101838.54;;;12.61;69.23
61478;BME280;47345;52.334;10.392;2022-07-18T02:26:30;101840.54;;;12.58;69.26
61478;BME280;47345;52.334;10.392;2022-07-18T02:29:01;101834.60;;;12.55;69.31
61478;BME280;47345;52.334;10.392;2022-07-18T02:31:31;101829.84;;;12.54;69.54
61478;BME280;47345;52.334;10.392;2022-07-18T02:34:01;101829.48;;;12.52;69.65
61478;BME280;47345;52.334;10.392;2022-07-18T02:36:39;101832.02;;;12.51;69.13
61478;BME280;47345;52.334;10.392;2022-07-18T02:39:11;101835.27;;;12.48;69.04
61478;BME280;47345;52.334;10.392;2022-07-18T02:41:41;101832.11;;;12.46;69.06
61478;BME280;47345;52.334;10.392;2022-07-18T02:44:12;101828.59;;;12.44;69.27
61478;BME280;47345;52.334;10.392;2022-07-18T02:46:42;101825.01;;;12.41;69.43
61478;BME280;47345;52.334;10.392;2022-07-18T02:49:13;101821.27;;;12.39;69.24
61478;BME280;47345;52.334;10.392;2022-07-18T02:52:00;101821.58;;;12.36;69.12
61478;BME280;47345;52.334;10.392;2022-07-18T02:54:33;101825.81;;;12.33;69.12
61478;BME280;47345;52.334;10.392;2022-07-18T02:57:04;101823.41;;;12.31;69.38
61478;BME280;47345;52.334;10.392;2022-07-18T02:59:35;101820.71;;;12.27;69.50
61478;BME280;47345;52.334;10.392;2022-07-18T03:02:05;101825.98;;;12.23;69.57
61478;BME280;47345;52.334;10.392;2022-07-18T03:04:36;101829.05;;;12.19;69.71
61478;BME280;47345;52.334;10.392;2022-07-18T03:07:06;101826.82;;;12.15;70.12
61478;BME280;47345;52.334;10.392;2022-07-18T03:09:37;101819.51;;;12.10;70.62
61478;BME280;47345;52.334;10.392;2022-07-18T03:12:08;101813.48;;;12.07;70.71
61478;BME280;47345;52.334;10.392;2022-07-18T03:14:38;101815.59;;;12.05;71.04
61478;BME280;47345;52.334;10.392;2022-07-18T03:17:09;101813.60;;;12.05;71.22
61478;BME280;47345;52.334;10.392;2022-07-18T03:19:39;101815.90;;;12.04;70.98
61478;BME280;47345;52.334;10.392;2022-07-18T03:22:09;101815.91;;;12.04;70.82
61478;BME280;47345;52.334;10.392;2022-07-18T03:24:40;101815.30;;;12.03;70.96
61478;BME280;47345;52.334;10.392;2022-07-18T03:27:10;101816.56;;;12.02;70.94
61478;BME280;47345;52.334;10.392;2022-07-18T03:29:40;101815.48;;;12.00;70.91
61478;BME280;47345;52.334;10.392;2022-07-18T03:32:11;101819.17;;;12.00;70.63
61478;BME280;47345;52.334;10.392;2022-07-18T03:34:42;101819.00;;;11.98;70.98
61478;BME280;47345;52.334;10.392;2022-07-18T03:37:13;101823.19;;;11.95;71.36
61478;BME280;47345;52.334;10.392;2022-07-18T03:39:44;101821.90;;;11.93;71.39
61478;BME280;47345;52.334;10.392;2022-07-18T03:42:14;101823.52;;;11.92;71.91
61478;BME280;47345;52.334;10.392;2022-07-18T03:44:44;101825.33;;;11.88;72.47
61478;BME280;47345;52.334;10.392;2022-07-18T03:47:15;101822.90;;;11.87;72.74
61478;BME280;47345;52.334;10.392;2022-07-18T03:49:45;101820.73;;;11.88;73.20
61478;BME280;47345;52.334;10.392;2022-07-18T03:52:16;101819.00;;;11.92;73.48
61478;BME280;47345;52.334;10.392;2022-07-18T03:54:46;101817.04;;;11.96;73.50
61478;BME280;47345;52.334;10.392;2022-07-18T03:57:17;101815.91;;;12.01;73.47
61478;BME280;47345;52.334;10.392;2022-07-18T03:59:47;101816.33;;;12.06;73.32
61478;BME280;47345;52.334;10.392;2022-07-18T04:02:18;101815.67;;;12.11;73.25
61478;BME280;47345;52.334;10.392;2022-07-18T04:04:48;101815.73;;;12.16;73.31
61478;BME280;47345;52.334;10.392;2022-07-18T04:07:19;101814.94;;;12.20;73.37
61478;BME280;47345;52.334;10.392;2022-07-18T04:09:49;101814.61;;;12.26;73.50
61478;BME280;47345;52.334;10.392;2022-07-18T04:12:22;101811.86;;;12.32;73.61
61478;BME280;47345;52.334;10.392;2022-07-18T04:14:52;101812.46;;;12.36;73.77
61478;BME280;47345;52.334;10.392;2022-07-18T04:17:23;101812.11;;;12.43;73.71
61478;BME280;47345;52.334;10.392;2022-07-18T04:19:54;101810.25;;;12.50;73.58
61478;BME280;47345;52.334;10.392;2022-07-18T04:22:24;101809.63;;;12.54;73.25
61478;BME280;47345;52.334;10.392;2022-07-18T04:24:55;101811.02;;;12.58;73.39
61478;BME280;47345;52.334;10.392;2022-07-18T04:27:26;101813.69;;;12.63;73.57
61478;BME280;47345;52.334;10.392;2022-07-18T04:29:56;101814.02;;;12.69;73.51
61478;BME280;47345;52.334;10.392;2022-07-18T04:32:26;101816.18;;;12.77;73.53
61478;BME280;47345;52.334;10.392;2022-07-18T04:34:57;101818.52;;;12.83;73.52
61478;BME280;47345;52.334;10.392;2022-07-18T04:37:30;101803.87;;;12.87;73.70
61478;BME280;47345;52.334;10.392;2022-07-18T04:40:01;101802.63;;;12.93;73.95
61478;BME280;47345;52.334;10.392;2022-07-18T04:42:31;101804.61;;;13.00;74.13
61478;BME280;47345;52.334;10.392;2022-07-18T04:45:02;101804.14;;;13.08;73.81
61478;BME280;47345;52.334;10.392;2022-07-18T04:47:34;101798.05;;;13.16;73.39
61478;BME280;47345;52.334;10.392;2022-07-18T04:50:05;101788.27;;;13.25;73.15
61478;BME280;47345;52.334;10.392;2022-07-18T04:52:41;101782.62;;;13.36;73.02
61478;BME280;47345;52.334;10.392;2022-07-18T04:55:13;101778.95;;;13.50;72.82
61478;BME280;47345;52.334;10.392;2022-07-18T04:57:44;101781.20;;;13.65;72.58
61478;BME280;47345;52.334;10.392;2022-07-18T05:00:18;101780.23;;;13.83;72.24
61478;BME280;47345;52.334;10.392;2022-07-18T05:02:50;101783.83;;;14.00;71.83
61478;BME280;47345;52.334;10.392;2022-07-18T05:05:22;101785.26;;;14.17;71.21
61478;BME280;47345;52.334;10.392;2022-07-18T05:07:53;101781.50;;;14.33;70.85
61478;BME280;47345;52.334;10.392;2022-07-18T05:10:24;101781.78;;;14.47;70.50
61478;BME280;47345;52.334;10.392;2022-07-18T05:12:55;101780.11;;;14.59;70.02
61478;BME280;47345;52.334;10.392;2022-07-18T05:15:26;101785.65;;;14.69;69.83
61478;BME280;47345;52.334;10.392;2022-07-18T05:17:57;101790.01;;;14.76;69.48
61478;BME280;47345;52.334;10.392;2022-07-18T05:20:27;101788.36;;;14.83;69.52
61478;BME280;47345;52.334;10.392;2022-07-18T05:22:58;101791.41;;;14.89;69.52
61478;BME280;47345;52.334;10.392;2022-07-18T05:25:29;101783.41;;;14.95;69.47
61478;BME280;47345;52.334;10.392;2022-07-18T05:27:59;101790.71;;;15.03;69.44
61478;BME280;47345;52.334;10.392;2022-07-18T05:30:29;101791.52;;;15.13;69.22
61478;BME280;47345;52.334;10.392;2022-07-18T05:33:00;101792.95;;;15.22;69.42
61478;BME280;47345;52.334;10.392;2022-07-18T05:35:30;101790.40;;;15.33;69.24
61478;BME280;47345;52.334;10.392;2022-07-18T05:38:00;101787.88;;;15.44;68.81
61478;BME280;47345;52.334;10.392;2022-07-18T05:40:31;101787.19;;;15.56;68.49
61478;BME280;47345;52.334;10.392;2022-07-18T05:43:01;101786.60;;;15.68;68.06
61478;BME280;47345;52.334;10.392;2022-07-18T05:45:32;101783.78;;;15.79;67.64
61478;BME280;47345;52.334;10.392;2022-07-18T05:48:03;101776.84;;;15.91;66.80
61478;BME280;47345;52.334;10.392;2022-07-18T05:50:33;101776.04;;;16.02;66.26
61478;BME280;47345;52.334;10.392;2022-07-18T05:53:04;101777.04;;;16.14;65.99
61478;BME280;47345;52.334;10.392;2022-07-18T05:55:35;101776.95;;;16.27;65.35
61478;BME280;47345;52.334;10.392;2022-07-18T05:58:06;101776.67;;;16.39;65.07
61478;BME280;47345;52.334;10.392;2022-07-18T06:00:37;101773.77;;;16.53;64.65
61478;BME280;47345;52.334;10.392;2022-07-18T06:03:07;101776.92;;;16.65;64.13
61478;BME280;47345;52.334;10.392;2022-07-18T06:05:38;101772.64;;;16.76;63.84
61478;BME280;47345;52.334;10.392;2022-07-18T06:08:10;101777.81;;;16.90;63.47
61478;BME280;47345;52.334;10.392;2022-07-18T06:10:40;101778.41;;;17.02;62.88
61478;BME280;47345;52.334;10.392;2022-07-18T06:13:14;101779.72;;;17.15;62.52
61478;BME280;47345;52.334;10.392;2022-07-18T06:15:45;101782.67;;;17.28;62.19
61478;BME280;47345;52.334;10.392;2022-07-18T06:18:16;101775.48;;;17.41;61.72
61478;BME280;47345;52.334;10.392;2022-07-18T06:20:46;101770.36;;;17.57;61.08
61478;BME280;47345;52.334;10.392;2022-07-18T06:23:17;101764.99;;;17.73;60.78
61478;BME280;47345;52.334;10.392;2022-07-18T06:25:47;101763.23;;;17.91;60.33
61478;BME280;47345;52.334;10.392;2022-07-18T06:28:18;101762.54;;;18.06;60.19
61478;BME280;47345;52.334;10.392;2022-07-18T06:30:48;101762.41;;;18.26;59.64
61478;BME280;47345;52.334;10.392;2022-07-18T06:33:19;101755.60;;;18.44;59.40
61478;BME280;47345;52.334;10.392;2022-07-18T06:35:49;101756.43;;;18.65;58.86
61478;BME280;47345;52.334;10.392;2022-07-18T06:38:20;101752.46;;;18.84;58.33
61478;BME280;47345;52.334;10.392;2022-07-18T06:40:51;101750.88;;;18.99;57.29
61478;BME280;47345;52.334;10.392;2022-07-18T06:43:22;101746.72;;;19.10;56.88
61478;BME280;47345;52.334;10.392;2022-07-18T06:45:53;101748.80;;;19.21;56.92
61478;BME280;47345;52.334;10.392;2022-07-18T06:48:27;101754.37;;;19.32;56.49
61478;BME280;47345;52.334;10.392;2022-07-18T06:51:02;101752.29;;;19.42;56.02
61478;BME280;47345;52.334;10.392;2022-07-18T06:53:34;101750.21;;;19.54;55.69
61478;BME280;47345;52.334;10.392;2022-07-18T06:56:04;101751.02;;;19.64;55.40
61478;BME280;47345;52.334;10.392;2022-07-18T06:58:35;101748.79;;;19.73;55.10
61478;BME280;47345;52.334;10.392;2022-07-18T07:01:06;101746.95;;;19.83;54.68
61478;BME280;47345;52.334;10.392;2022-07-18T07:03:37;101746.55;;;19.92;54.05
61478;BME280;47345;52.334;10.392;2022-07-18T07:06:08;101751.45;;;20.01;53.57
61478;BME280;47345;52.334;10.392;2022-07-18T07:08:38;101753.06;;;20.09;53.52
61478;BME280;47345;52.334;10.392;2022-07-18T07:11:09;101758.02;;;20.19;52.94
61478;BME280;47345;52.334;10.392;2022-07-18T07:13:39;101755.86;;;20.28;52.99
61478;BME280;47345;52.334;10.392;2022-07-18T07:16:10;101751.73;;;20.39;53.42
61478;BME280;47345;52.334;10.392;2022-07-18T07:18:41;101749.40;;;20.51;52.91
61478;BME280;47345;52.334;10.392;2022-07-18T07:21:11;101741.83;;;20.62;52.27
61478;BME280;47345;52.334;10.392;2022-07-18T07:23:48;101736.83;;;20.72;51.51
61478;BME280;47345;52.334;10.392;2022-07-18T07:26:18;101738.90;;;20.81;51.20
61478;BME280;47345;52.334;10.392;2022-07-18T07:28:48;101738.67;;;20.88;50.98
61478;BME280;47345;52.334;10.392;2022-07-18T07:31:19;101739.84;;;20.95;50.45
61478;BME280;47345;52.334;10.392;2022-07-18T07:33:49;101734.77;;;21.01;49.98
61478;BME280;47345;52.334;10.392;2022-07-18T07:36:20;101734.42;;;21.08;49.79
61478;BME280;47345;52.334;10.392;2022-07-18T07:38:51;101732.94;;;21.16;49.93
61478;BME280;47345;52.334;10.392;2022-07-18T07:41:22;101734.20;;;21.22;49.57
61478;BME280;47345;52.334;10.392;2022-07-18T07:43:52;101733.39;;;21.29;49.17
61478;BME280;47345;52.334;10.392;2022-07-18T07:46:23;101732.23;;;21.36;49.58
61478;BME280;47345;52.334;10.392;2022-07-18T07:48:53;101731.92;;;21.42;48.95
61478;BME280;47345;52.334;10.392;2022-07-18T07:51:24;101737.13;;;21.48;49.00
61478;BME280;47345;52.334;10.392;2022-07-18T07:54:03;101735.63;;;21.52;49.15
61478;BME280;47345;52.334;10.392;2022-07-18T07:56:34;101732.84;;;21.56;48.94
61478;BME280;47345;52.334;10.392;2022-07-18T07:59:05;101733.16;;;21.59;48.93
61478;BME280;47345;52.334;10.392;2022-07-18T08:01:35;101736.78;;;21.62;48.46
61478;BME280;47345;52.334;10.392;2022-07-18T08:04:06;101734.58;;;21.66;47.64
61478;BME280;47345;52.334;10.392;2022-07-18T08:06:37;101728.88;;;21.70;47.69
61478;BME280;47345;52.334;10.392;2022-07-18T08:09:08;101725.06;;;21.73;48.35
61478;BME280;47345;52.334;10.392;2022-07-18T08:11:38;101724.17;;;21.78;48.23
61478;BME280;47345;52.334;10.392;2022-07-18T08:14:09;101722.90;;;21.83;47.64
61478;BME280;47345;52.334;10.392;2022-07-18T08:16:39;101722.57;;;21.87;47.31
61478;BME280;47345;52.334;10.392;2022-07-18T08:19:10;101718.52;;;21.93;46.69
61478;BME280;47345;52.334;10.392;2022-07-18T08:21:41;101719.06;;;21.97;46.96
61478;BME280;47345;52.334;10.392;2022-07-18T08:24:11;101707.02;;;22.01;46.25
61478;BME280;47345;52.334;10.392;2022-07-18T08:26:42;101706.98;;;22.08;45.86
61478;BME280;47345;52.334;10.392;2022-07-18T08:29:13;101707.48;;;22.13;45.90
61478;BME280;47345;52.334;10.392;2022-07-18T08:31:43;101710.08;;;22.16;45.41
61478;BME280;47345;52.334;10.392;2022-07-18T08:34:13;101703.36;;;22.19;44.74
61478;BME280;47345;52.334;10.392;2022-07-18T08:36:44;101707.38;;;22.18;43.75
61478;BME280;47345;52.334;10.392;2022-07-18T08:39:15;101711.85;;;22.20;44.37
61478;BME280;47345;52.334;10.392;2022-07-18T08:41:45;101715.26;;;22.26;44.35
61478;BME280;47345;52.334;10.392;2022-07-18T08:44:17;101714.17;;;22.32;43.30
61478;BME280;47345;52.334;10.392;2022-07-18T08:46:51;101716.58;;;22.36;42.93
61478;BME280;47345;52.334;10.392;2022-07-18T08:49:23;101716.65;;;22.42;42.99
61478;BME280;47345;52.334;10.392;2022-07-18T08:51:54;101714.39;;;22.49;42.53
61478;BME280;47345;52.334;10.392;2022-07-18T08:54:24;101708.33;;;22.56;43.19
61478;BME280;47345;52.334;10.392;2022-07-18T08:56:55;101708.15;;;22.61;43.08
61478;BME280;47345;52.334;10.392;2022-07-18T08:59:26;101706.35;;;22.67;42.66
61478;BME280;47345;52.334;10.392;2022-07-18T09:01:56;101708.77;;;22.70;42.59
61478;BME280;47345;52.334;10.392;2022-07-18T09:04:37;101709.60;;;22.74;42.50
61478;BME280;47345;52.334;10.392;2022-07-18T09:07:09;101707.34;;;22.78;42.06
61478;BME280;47345;52.334;10.392;2022-07-18T09:09:40;101706.70;;;22.83;41.62
61478;BME280;47345;52.334;10.392;2022-07-18T09:12:21;101699.98;;;22.88;41.46
61478;BME280;47345;52.334;10.392;2022-07-18T09:14:58;101699.48;;;22.95;41.33
61478;BME280;47345;52.334;10.392;2022-07-18T09:17:34;101694.78;;;23.02;41.59
61478;BME280;47345;52.334;10.392;2022-07-18T09:20:07;101697.77;;;23.06;41.96
61478;BME280;47345;52.334;10.392;2022-07-18T09:22:43;101698.38;;;23.12;41.80
61478;BME280;47345;52.334;10.392;2022-07-18T09:25:16;101703.41;;;23.22;41.93
61478;BME280;47345;52.334;10.392;2022-07-18T09:27:50;101699.23;;;23.28;40.99
61478;BME280;47345;52.334;10.392;2022-07-18T09:30:24;101697.57;;;23.34;41.11
61478;BME280;47345;52.334;10.392;2022-07-18T09:33:07;101694.77;;;23.41;40.92
61478;BME280;47345;52.334;10.392;2022-07-18T09:35:42;101692.11;;;23.46;41.20
61478;BME280;47345;52.334;10.392;2022-07-18T09:38:14;101697.13;;;23.57;40.98
61478;BME280;47345;52.334;10.392;2022-07-18T09:40:47;101702.22;;;23.71;41.43
61478;BME280;47345;52.334;10.392;2022-07-18T09:43:19;101703.53;;;23.79;39.69
61478;BME280;47345;52.334;10.392;2022-07-18T09:45:52;101702.20;;;23.84;39.96
61478;BME280;47345;52.334;10.392;2022-07-18T09:48:24;101702.83;;;23.90;40.76
61478;BME280;47345;52.334;10.392;2022-07-18T09:50:56;101701.63;;;23.96;39.69
61478;BME280;47345;52.334;10.392;2022-07-18T09:53:30;101693.80;;;24.02;39.06
61478;BME280;47345;52.334;10.392;2022-07-18T09:56:05;101685.49;;;24.10;39.27
61478;BME280;47345;52.334;10.392;2022-07-18T09:58:38;101681.09;;;24.17;39.30
61478;BME280;47345;52.334;10.392;2022-07-18T10:01:09;101678.80;;;24.17;38.25
61478;BME280;47345;52.334;10.392;2022-07-18T10:03:41;101669.56;;;24.16;38.87
61478;BME280;47345;52.334;10.392;2022-07-18T10:06:11;101665.38;;;24.17;39.09
61478;BME280;47345;52.334;10.392;2022-07-18T10:08:42;101661.31;;;24.31;38.10
61478;BME280;47345;52.334;10.392;2022-07-18T10:11:12;101662.42;;;24.44;38.38
61478;BME280;47345;52.334;10.392;2022-07-18T10:13:43;101655.33;;;24.58;37.80
61478;BME280;47345;52.334;10.392;2022-07-18T10:16:14;101657.17;;;24.70;38.06
61478;BME280;47345;52.334;10.392;2022-07-18T10:18:44;101653.34;;;24.77;37.58
61478;BME280;47345;52.334;10.392;2022-07-18T10:21:16;101649.64;;;24.83;36.67
61478;BME280;47345;52.334;10.392;2022-07-18T10:23:49;101645.25;;;24.91;36.66
61478;BME280;47345;52.334;10.392;2022-07-18T10:26:26;101642.09;;;25.00;37.32
61478;BME280;47345;52.334;10.392;2022-07-18T10:29:18;101642.67;;;25.09;37.03
61478;BME280;47345;52.334;10.392;2022-07-18T10:32:05;101642.99;;;25.18;36.72
61478;BME280;47345;52.334;10.392;2022-07-18T10:34:38;101643.14;;;25.25;36.52
61478;BME280;47345;52.334;10.392;2022-07-18T10:37:11;101642.73;;;25.28;36.08
61478;BME280;47345;52.334;10.392;2022-07-18T10:39:42;101640.53;;;25.36;36.92
61478;BME280;47345;52.334;10.392;2022-07-18T10:42:19;101640.73;;;25.48;36.22
61478;BME280;47345;52.334;10.392;2022-07-18T10:44:53;101644.48;;;25.56;36.12
61478;BME280;47345;52.334;10.392;2022-07-18T10:47:29;101644.41;;;25.60;35.12
61478;BME280;47345;52.334;10.392;2022-07-18T10:50:11;101637.13;;;25.61;34.90
61478;BME280;47345;52.334;10.392;2022-07-18T10:53:00;101636.77;;;25.65;34.71
61478;BME280;47345;52.334;10.392;2022-07-18T10:55:47;101641.63;;;25.70;34.81
61478;BME280;47345;52.334;10.392;2022-07-18T10:58:19;101639.87;;;25.73;34.67
61478;BME280;47345;52.334;10.392;2022-07-18T11:00:54;101637.90;;;25.75;34.36
61478;BME280;47345;52.334;10.392;2022-07-18T11:03:29;101634.73;;;25.79;35.27
61478;BME280;47345;52.334;10.392;2022-07-18T11:06:00;101632.80;;;25.84;34.90
61478;BME280;47345;52.334;10.392;2022-07-18T11:08:32;101627.08;;;25.87;34.24
61478;BME280;47345;52.334;10.392;2022-07-18T11:11:12;101624.77;;;25.87;34.05
61478;BME280;47345;52.334;10.392;2022-07-18T11:13:46;101617.91;;;25.90;34.38
61478;BME280;47345;52.334;10.392;2022-07-18T11:16:23;101610.42;;;25.95;34.13
61478;BME280;47345;52.334;10.392;2022-07-18T11:19:18;101608.45;;;26.03;33.45
61478;BME280;47345;52.334;10.392;2022-07-18T11:21:58;101602.30;;;26.12;33.38
61478;BME280;47345;52.334;10.392;2022-07-18T11:24:29;101598.15;;;26.20;33.47
61478;BME280;47345;52.334;10.392;2022-07-18T11:26:59;101595.30;;;26.25;33.68
61478;BME280;47345;52.334;10.392;2022-07-18T11:29:41;101591.37;;;26.27;34.17
61478;BME280;47345;52.334;10.392;2022-07-18T11:32:12;101587.86;;;26.30;33.85
61478;BME280;47345;52.334;10.392;2022-07-18T11:34:50;101578.30;;;26.33;33.78
61478;BME280;47345;52.334;10.392;2022-07-18T11:37:21;101576.77;;;26.41;33.36
61478;BME280;47345;52.334;10.392;2022-07-18T11:39:52;101575.80;;;26.49;34.28
61478;BME280;47345;52.334;10.392;2022-07-18T11:42:37;101573.13;;;26.58;33.43
61478;BME280;47345;52.334;10.392;2022-07-18T11:45:09;101563.20;;;26.62;33.39
61478;BME280;47345;52.334;10.392;2022-07-18T11:47:43;101563.93;;;26.68;33.20
61478;BME280;47345;52.334;10.392;2022-07-18T11:50:15;101565.64;;;26.70;33.02
61478;BME280;47345;52.334;10.392;2022-07-18T11:52:46;101565.41;;;26.76;32.91
61478;BME280;47345;52.334;10.392;2022-07-18T11:55:34;101566.15;;;26.81;33.08
61478;BME280;47345;52.334;10.392;2022-07-18T11:58:08;101561.69;;;26.85;33.16
61478;BME280;47345;52.334;10.392;2022-07-18T12:00:41;101558.05;;;26.89;32.16
61478;BME280;47345;52.334;10.392;2022-07-18T12:03:14;101558.70;;;26.97;32.48
61478;BME280;47345;52.334;10.392;2022-07-18T12:05:47;101560.90;;;27.00;32.67
61478;BME280;47345;52.334;10.392;2022-07-18T12:08:29;101553.77;;;27.04;32.16
61478;BME280;47345;52.334;10.392;2022-07-18T12:11:11;101560.64;;;27.11;31.80
61478;BME280;47345;52.334;10.392;2022-07-18T12:13:48;101561.50;;;27.15;31.87
61478;BME280;47345;52.334;10.392;2022-07-18T12:16:30;101560.05;;;27.18;31.16
61478;BME280;47345;52.334;10.392;2022-07-18T12:19:03;101554.86;;;27.20;30.77
61478;BME280;47345;52.334;10.392;2022-07-18T12:21:46;101556.05;;;27.23;30.77
61478;BME280;47345;52.334;10.392;2022-07-18T12:24:27;101554.08;;;27.29;31.16
61478;BME280;47345;52.334;10.392;2022-07-18T12:27:19;101549.55;;;27.34;31.02
61478;BME280;47345;52.334;10.392;2022-07-18T12:30:10;101544.56;;;27.42;31.78
61478;BME280;47345;52.334;10.392;2022-07-18T12:32:44;101538.91;;;27.49;31.27
61478;BME280;47345;52.334;10.392;2022-07-18T12:35:18;101534.86;;;27.54;31.17
61478;BME280;47345;52.334;10.392;2022-07-18T12:38:00;101528.20;;;27.60;31.42
61478;BME280;47345;52.334;10.392;2022-07-18T12:40:42;101523.20;;;27.67;30.68
61478;BME280;47345;52.334;10.392;2022-07-18T12:43:16;101528.52;;;27.75;30.46
61478;BME280;47345;52.334;10.392;2022-07-18T12:45:47;101531.91;;;27.82;29.89
61478;BME280;47345;52.334;10.392;2022-07-18T12:48:18;101530.86;;;27.88;29.40
61478;BME280;47345;52.334;10.392;2022-07-18T12:50:56;101526.59;;;27.94;29.21
61478;BME280;47345;52.334;10.392;2022-07-18T12:53:28;101524.82;;;27.99;29.00
61478;BME280;47345;52.334;10.392;2022-07-18T12:55:59;101527.41;;;28.09;28.74
61478;BME280;47345;52.334;10.392;2022-07-18T12:58:30;101520.59;;;28.21;28.81
61478;BME280;47345;52.334;10.392;2022-07-18T13:01:01;101523.47;;;28.30;28.66
61478;BME280;47345;52.334;10.392;2022-07-18T13:03:36;101514.99;;;28.40;27.95
61478;BME280;47345;52.334;10.392;2022-07-18T13:06:09;101513.16;;;28.49;27.72